sensor_id;sensor_type;location;lat;lon;timestamp;P1;durP1;ratioP1;P2;durP2;ratioP2
74914;SDS011;63475;45.140;-75.616;2023-08-08T00:01:30;8.82;;;4.90;;
74914;SDS011;63475;45.140;-75.616;2023-08-08T00:03:33;9.20;;;4.68;;
74914;SDS011;63475;45.140;-75.616;2023-08-08T00:05:36;9.02;;;5.03;;
74914;SDS011;63475;45.140;-75.616;2023-08-08T00:07:39;8.52;;;3.63;;
74914;SDS011;63475;45.140;-75.616;2023-08-08T00:09:41;7.65;;;4.63;;
74914;SDS011;63475;45.140;-75.616;2023-08-08T00:11:44;8.20;;;3.20;;
74914;SDS011;63475;45.140;-75.616;2023-08-08T00:13:46;8.40;;;3.05;;
74914;SDS011;63475;45.140;-75.616;2023-08-08T00:15:53;8.57;;;4.47;;
74914;SDS011;63475;45.140;-75.616;2023-08-08T00:17:56;6.93;;;3.97;;
74914;SDS011;63475;45.140;-75.616;2023-08-08T00:19:58;8.57;;;3.28;;
74914;SDS011;63475;45.140;-75.616;2023-08-08T00:22:01;8.07;;;4.40;;
74914;SDS011;63475;45.140;-75.616;2023-08-08T00:24:04;8.77;;;4.78;;
74914;SDS011;63475;45.140;-75.616;2023-08-08T00:26:07;7.75;;;3.38;;
74914;SDS011;63475;45.140;-75.616;2023-08-08T00:28:09;7.93;;;4.30;;
74914;SDS011;63475;45.140;-75.616;2023-08-08T00:30:12;9.23;;;5.40;;
74914;SDS011;63475;45.140;-75.616;2023-08-08T00:32:15;12.15;;;3.17;;
74914;SDS011;63475;45.140;-75.616;2023-08-08T00:34:18;10.40;;;4.38;;
74914;SDS011;63475;45.140;-75.616;2023-08-08T00:36:21;9.32;;;4.93;;
74914;SDS011;63475;45.140;-75.616;2023-08-08T00:38:23;8.55;;;4.78;;
74914;SDS011;63475;45.140;-75.616;2023-08-08T00:40:26;8.65;;;4.95;;
74914;SDS011;63475;45.140;-75.616;2023-08-08T00:42:29;9.48;;;5.25;;
74914;SDS011;63475;45.140;-75.616;2023-08-08T00:44:31;8.50;;;4.35;;
74914;SDS011;63475;45.140;-75.616;2023-08-08T00:46:34;9.10;;;4.95;;
74914;SDS011;63475;45.140;-75.616;2023-08-08T00:48:37;10.43;;;3.85;;
74914;SDS011;63475;45.140;-75.616;2023-08-08T00:50:41;8.52;;;3.30;;
74914;SDS011;63475;45.140;-75.616;2023-08-08T00:52:46;8.10;;;3.13;;
74914;SDS011;63475;45.140;-75.616;2023-08-08T00:54:49;7.85;;;3.60;;
74914;SDS011;63475;45.140;-75.616;2023-08-08T00:56:52;10.35;;;4.70;;
74914;SDS011;63475;45.140;-75.616;2023-08-08T00:58:55;7.70;;;3.38;;
74914;SDS011;63475;45.140;-75.616;2023-08-08T01:00:58;8.82;;;3.40;;
74914;SDS011;63475;45.140;-75.616;2023-08-08T01:03:02;7.53;;;4.63;;
74914;SDS011;63475;45.140;-75.616;2023-08-08T01:05:05;10.02;;;5.20;;
74914;SDS011;63475;45.140;-75.616;2023-08-08T01:09:20;9.73;;;2.92;;
74914;SDS011;63475;45.140;-75.616;2023-08-08T01:11:29;10.63;;;4.85;;
74914;SDS011;63475;45.140;-75.616;2023-08-08T01:13:35;7.38;;;4.50;;
74914;SDS011;63475;45.140;-75.616;2023-08-08T01:15:40;8.70;;;4.80;;
74914;SDS011;63475;45.140;-75.616;2023-08-08T01:17:43;9.70;;;2.80;;
74914;SDS011;63475;45.140;-75.616;2023-08-08T01:19:47;7.03;;;2.92;;
74914;SDS011;63475;45.140;-75.616;2023-08-08T01:21:52;7.95;;;3.67;;
74914;SDS011;63475;45.140;-75.616;2023-08-08T01:24:00;7.75;;;4.15;;
74914;SDS011;63475;45.140;-75.616;2023-08-08T01:26:12;8.60;;;4.28;;
74914;SDS011;63475;45.140;-75.616;2023-08-08T01:28:15;7.35;;;2.47;;
74914;SDS011;63475;45.140;-75.616;2023-08-08T01:30:22;8.38;;;4.53;;
74914;SDS011;63475;45.140;-75.616;2023-08-08T01:32:25;8.38;;;2.60;;
74914;SDS011;63475;45.140;-75.616;2023-08-08T01:34:28;9.30;;;3.08;;
74914;SDS011;63475;45.140;-75.616;2023-08-08T01:36:32;9.18;;;2.75;;
74914;SDS011;63475;45.140;-75.616;2023-08-08T01:38:41;6.43;;;2.58;;
74914;SDS011;63475;45.140;-75.616;2023-08-08T01:40:46;5.50;;;2.10;;
74914;SDS011;63475;45.140;-75.616;2023-08-08T01:42:49;7.75;;;3.22;;
74914;SDS011;63475;45.140;-75.616;2023-08-08T01:44:53;7.38;;;2.70;;
74914;SDS011;63475;45.140;-75.616;2023-08-08T01:46:57;8.43;;;3.17;;
74914;SDS011;63475;45.140;-75.616;2023-08-08T01:49:00;7.45;;;2.40;;
74914;SDS011;63475;45.140;-75.616;2023-08-08T01:51:03;7.20;;;3.03;;
74914;SDS011;63475;45.140;-75.616;2023-08-08T01:53:06;7.05;;;3.80;;
74914;SDS011;63475;45.140;-75.616;2023-08-08T01:55:08;6.88;;;2.78;;
74914;SDS011;63475;45.140;-75.616;2023-08-08T01:57:11;6.03;;;2.40;;
74914;SDS011;63475;45.140;-75.616;2023-08-08T01:59:14;8.38;;;2.95;;
74914;SDS011;63475;45.140;-75.616;2023-08-08T02:01:17;7.82;;;4.20;;
74914;SDS011;63475;45.140;-75.616;2023-08-08T02:03:20;7.05;;;3.33;;
74914;SDS011;63475;45.140;-75.616;2023-08-08T02:05:22;8.02;;;2.38;;
74914;SDS011;63475;45.140;-75.616;2023-08-08T02:07:25;7.55;;;2.38;;
74914;SDS011;63475;45.140;-75.616;2023-08-08T02:09:27;8.00;;;2.20;;
74914;SDS011;63475;45.140;-75.616;2023-08-08T02:11:30;6.43;;;2.17;;
74914;SDS011;63475;45.140;-75.616;2023-08-08T02:13:32;8.30;;;2.58;;
74914;SDS011;63475;45.140;-75.616;2023-08-08T02:15:35;6.45;;;1.70;;
74914;SDS011;63475;45.140;-75.616;2023-08-08T02:17:38;9.65;;;2.53;;
74914;SDS011;63475;45.140;-75.616;2023-08-08T02:19:41;7.72;;;2.53;;
74914;SDS011;63475;45.140;-75.616;2023-08-08T02:21:43;7.55;;;2.42;;
74914;SDS011;63475;45.140;-75.616;2023-08-08T02:23:46;7.22;;;2.45;;
74914;SDS011;63475;45.140;-75.616;2023-08-08T02:25:48;7.18;;;2.25;;
74914;SDS011;63475;45.140;-75.616;2023-08-08T02:27:51;6.10;;;2.20;;
74914;SDS011;63475;45.140;-75.616;2023-08-08T02:29:54;5.28;;;2.00;;
74914;SDS011;63475;45.140;-75.616;2023-08-08T02:31:56;9.65;;;3.15;;
74914;SDS011;63475;45.140;-75.616;2023-08-08T02:33:59;7.45;;;3.17;;
74914;SDS011;63475;45.140;-75.616;2023-08-08T02:36:02;7.57;;;3.40;;
74914;SDS011;63475;45.140;-75.616;2023-08-08T02:38:04;6.00;;;3.58;;
74914;SDS011;63475;45.140;-75.616;2023-08-08T02:40:07;8.02;;;3.47;;
74914;SDS011;63475;45.140;-75.616;2023-08-08T02:42:11;5.38;;;1.90;;
74914;SDS011;63475;45.140;-75.616;2023-08-08T02:44:14;6.68;;;2.00;;
74914;SDS011;63475;45.140;-75.616;2023-08-08T02:46:16;5.60;;;1.55;;
74914;SDS011;63475;45.140;-75.616;2023-08-08T02:48:19;6.72;;;1.98;;
74914;SDS011;63475;45.140;-75.616;2023-08-08T02:50:21;6.30;;;1.73;;
74914;SDS011;63475;45.140;-75.616;2023-08-08T02:52:24;4.85;;;1.90;;
74914;SDS011;63475;45.140;-75.616;2023-08-08T02:54:27;6.03;;;1.60;;
74914;SDS011;63475;45.140;-75.616;2023-08-08T02:56:29;4.95;;;1.95;;
74914;SDS011;63475;45.140;-75.616;2023-08-08T02:58:32;5.40;;;1.55;;
74914;SDS011;63475;45.140;-75.616;2023-08-08T03:00:35;4.93;;;1.80;;
74914;SDS011;63475;45.140;-75.616;2023-08-08T03:02:37;4.07;;;1.23;;
74914;SDS011;63475;45.140;-75.616;2023-08-08T03:04:40;3.80;;;1.40;;
74914;SDS011;63475;45.140;-75.616;2023-08-08T03:06:43;4.90;;;1.27;;
74914;SDS011;63475;45.140;-75.616;2023-08-08T03:08:45;4.55;;;1.25;;
74914;SDS011;63475;45.140;-75.616;2023-08-08T03:10:48;4.15;;;1.30;;
74914;SDS011;63475;45.140;-75.616;2023-08-08T03:12:51;4.75;;;1.70;;
74914;SDS011;63475;45.140;-75.616;2023-08-08T03:14:54;4.28;;;1.17;;
74914;SDS011;63475;45.140;-75.616;2023-08-08T03:16:56;4.50;;;1.40;;
74914;SDS011;63475;45.140;-75.616;2023-08-08T03:18:59;4.55;;;1.15;;
74914;SDS011;63475;45.140;-75.616;2023-08-08T03:21:02;4.18;;;2.38;;
74914;SDS011;63475;45.140;-75.616;2023-08-08T03:23:04;5.10;;;1.27;;
74914;SDS011;63475;45.140;-75.616;2023-08-08T03:25:07;4.60;;;1.23;;
74914;SDS011;63475;45.140;-75.616;2023-08-08T03:27:10;6.50;;;3.53;;
74914;SDS011;63475;45.140;-75.616;2023-08-08T03:29:13;3.33;;;1.00;;
74914;SDS011;63475;45.140;-75.616;2023-08-08T03:31:15;5.03;;;1.38;;
74914;SDS011;63475;45.140;-75.616;2023-08-08T03:33:19;4.55;;;1.05;;
74914;SDS011;63475;45.140;-75.616;2023-08-08T03:35:21;4.20;;;1.63;;
74914;SDS011;63475;45.140;-75.616;2023-08-08T03:37:24;3.72;;;1.13;;
74914;SDS011;63475;45.140;-75.616;2023-08-08T03:39:27;4.80;;;2.17;;
74914;SDS011;63475;45.140;-75.616;2023-08-08T03:41:29;3.83;;;1.25;;
74914;SDS011;63475;45.140;-75.616;2023-08-08T03:43:32;3.25;;;1.35;;
74914;SDS011;63475;45.140;-75.616;2023-08-08T03:45:35;5.05;;;1.33;;
74914;SDS011;63475;45.140;-75.616;2023-08-08T03:47:37;4.53;;;2.08;;
74914;SDS011;63475;45.140;-75.616;2023-08-08T03:49:40;5.18;;;2.20;;
74914;SDS011;63475;45.140;-75.616;2023-08-08T03:51:43;4.80;;;2.13;;
74914;SDS011;63475;45.140;-75.616;2023-08-08T03:53:45;3.58;;;0.90;;
74914;SDS011;63475;45.140;-75.616;2023-08-08T03:55:48;5.82;;;1.42;;
74914;SDS011;63475;45.140;-75.616;2023-08-08T03:57:50;3.97;;;1.13;;
74914;SDS011;63475;45.140;-75.616;2023-08-08T03:59:53;4.65;;;1.33;;
74914;SDS011;63475;45.140;-75.616;2023-08-08T04:01:55;3.95;;;1.08;;
74914;SDS011;63475;45.140;-75.616;2023-08-08T04:03:58;3.30;;;1.63;;
74914;SDS011;63475;45.140;-75.616;2023-08-08T04:06:01;5.20;;;1.10;;
74914;SDS011;63475;45.140;-75.616;2023-08-08T04:08:03;4.55;;;1.00;;
74914;SDS011;63475;45.140;-75.616;2023-08-08T04:10:06;3.60;;;0.73;;
74914;SDS011;63475;45.140;-75.616;2023-08-08T04:12:09;4.03;;;1.08;;
74914;SDS011;63475;45.140;-75.616;2023-08-08T04:14:12;4.60;;;2.15;;
74914;SDS011;63475;45.140;-75.616;2023-08-08T04:16:15;4.68;;;1.02;;
74914;SDS011;63475;45.140;-75.616;2023-08-08T04:18:17;3.58;;;1.52;;
74914;SDS011;63475;45.140;-75.616;2023-08-08T04:20:20;4.05;;;2.30;;
74914;SDS011;63475;45.140;-75.616;2023-08-08T04:22:23;7.50;;;1.95;;
74914;SDS011;63475;45.140;-75.616;2023-08-08T04:24:25;3.95;;;2.15;;
74914;SDS011;63475;45.140;-75.616;2023-08-08T04:26:28;3.90;;;1.73;;
74914;SDS011;63475;45.140;-75.616;2023-08-08T04:28:31;3.72;;;1.50;;
74914;SDS011;63475;45.140;-75.616;2023-08-08T04:30:34;3.28;;;1.00;;
74914;SDS011;63475;45.140;-75.616;2023-08-08T04:32:37;4.75;;;1.00;;
74914;SDS011;63475;45.140;-75.616;2023-08-08T04:34:40;3.72;;;2.47;;
74914;SDS011;63475;45.140;-75.616;2023-08-08T04:36:42;3.95;;;0.80;;
74914;SDS011;63475;45.140;-75.616;2023-08-08T04:38:45;3.83;;;1.50;;
74914;SDS011;63475;45.140;-75.616;2023-08-08T04:40:47;2.88;;;0.50;;
74914;SDS011;63475;45.140;-75.616;2023-08-08T04:42:50;2.65;;;1.58;;
74914;SDS011;63475;45.140;-75.616;2023-08-08T04:44:53;2.33;;;0.52;;
74914;SDS011;63475;45.140;-75.616;2023-08-08T04:46:56;2.67;;;0.60;;
74914;SDS011;63475;45.140;-75.616;2023-08-08T04:48:59;2.78;;;0.43;;
74914;SDS011;63475;45.140;-75.616;2023-08-08T04:51:02;2.47;;;1.27;;
74914;SDS011;63475;45.140;-75.616;2023-08-08T04:53:06;1.58;;;0.40;;
74914;SDS011;63475;45.140;-75.616;2023-08-08T04:55:09;2.08;;;0.40;;
74914;SDS011;63475;45.140;-75.616;2023-08-08T04:57:11;3.30;;;1.10;;
74914;SDS011;63475;45.140;-75.616;2023-08-08T04:59:14;2.15;;;0.55;;
74914;SDS011;63475;45.140;-75.616;2023-08-08T05:01:17;1.67;;;0.32;;
74914;SDS011;63475;45.140;-75.616;2023-08-08T05:03:22;1.92;;;0.38;;
74914;SDS011;63475;45.140;-75.616;2023-08-08T05:05:24;2.70;;;0.43;;
74914;SDS011;63475;45.140;-75.616;2023-08-08T05:07:27;1.40;;;0.30;;
74914;SDS011;63475;45.140;-75.616;2023-08-08T05:09:30;2.42;;;0.30;;
74914;SDS011;63475;45.140;-75.616;2023-08-08T05:11:32;2.28;;;0.38;;
74914;SDS011;63475;45.140;-75.616;2023-08-08T05:13:35;1.58;;;0.30;;
74914;SDS011;63475;45.140;-75.616;2023-08-08T05:15:37;2.53;;;1.95;;
74914;SDS011;63475;45.140;-75.616;2023-08-08T05:17:40;2.45;;;0.93;;
74914;SDS011;63475;45.140;-75.616;2023-08-08T05:19:42;2.50;;;2.20;;
74914;SDS011;63475;45.140;-75.616;2023-08-08T05:21:45;2.00;;;0.65;;
74914;SDS011;63475;45.140;-75.616;2023-08-08T05:23:49;1.23;;;0.20;;
74914;SDS011;63475;45.140;-75.616;2023-08-08T05:25:52;1.88;;;1.10;;
74914;SDS011;63475;45.140;-75.616;2023-08-08T05:27:54;1.15;;;0.38;;
74914;SDS011;63475;45.140;-75.616;2023-08-08T05:29:57;1.05;;;0.32;;
74914;SDS011;63475;45.140;-75.616;2023-08-08T05:31:59;0.90;;;0.20;;
74914;SDS011;63475;45.140;-75.616;2023-08-08T05:34:03;2.35;;;0.30;;
74914;SDS011;63475;45.140;-75.616;2023-08-08T05:36:05;1.75;;;0.73;;
74914;SDS011;63475;45.140;-75.616;2023-08-08T05:38:08;1.05;;;0.20;;
74914;SDS011;63475;45.140;-75.616;2023-08-08T05:40:10;0.90;;;0.28;;
74914;SDS011;63475;45.140;-75.616;2023-08-08T05:42:13;1.52;;;0.80;;
74914;SDS011;63475;45.140;-75.616;2023-08-08T05:44:15;0.82;;;0.20;;
74914;SDS011;63475;45.140;-75.616;2023-08-08T05:46:18;0.93;;;0.20;;
74914;SDS011;63475;45.140;-75.616;2023-08-08T05:48:21;1.35;;;0.20;;
74914;SDS011;63475;45.140;-75.616;2023-08-08T05:50:23;1.80;;;0.63;;
74914;SDS011;63475;45.140;-75.616;2023-08-08T05:52:26;1.58;;;0.82;;
74914;SDS011;63475;45.140;-75.616;2023-08-08T05:54:29;0.70;;;0.10;;
74914;SDS011;63475;45.140;-75.616;2023-08-08T05:56:35;1.98;;;1.00;;
74914;SDS011;63475;45.140;-75.616;2023-08-08T05:58:40;1.13;;;0.20;;
74914;SDS011;63475;45.140;-75.616;2023-08-08T06:00:43;1.67;;;0.50;;
74914;SDS011;63475;45.140;-75.616;2023-08-08T06:02:46;1.70;;;0.30;;
74914;SDS011;63475;45.140;-75.616;2023-08-08T06:04:48;3.63;;;1.00;;
74914;SDS011;63475;45.140;-75.616;2023-08-08T06:06:51;2.58;;;1.73;;
74914;SDS011;63475;45.140;-75.616;2023-08-08T06:08:53;2.63;;;0.88;;
74914;SDS011;63475;45.140;-75.616;2023-08-08T06:10:56;1.48;;;0.80;;
74914;SDS011;63475;45.140;-75.616;2023-08-08T06:12:58;0.98;;;0.20;;
74914;SDS011;63475;45.140;-75.616;2023-08-08T06:15:01;2.53;;;0.20;;
74914;SDS011;63475;45.140;-75.616;2023-08-08T06:17:05;1.80;;;0.63;;
74914;SDS011;63475;45.140;-75.616;2023-08-08T06:19:08;1.42;;;0.30;;
74914;SDS011;63475;45.140;-75.616;2023-08-08T06:21:12;1.95;;;0.43;;
74914;SDS011;63475;45.140;-75.616;2023-08-08T06:23:14;1.60;;;0.43;;
74914;SDS011;63475;45.140;-75.616;2023-08-08T06:25:17;1.35;;;0.65;;
74914;SDS011;63475;45.140;-75.616;2023-08-08T06:27:19;2.85;;;1.67;;
74914;SDS011;63475;45.140;-75.616;2023-08-08T06:29:22;2.95;;;0.98;;
74914;SDS011;63475;45.140;-75.616;2023-08-08T06:31:25;2.22;;;1.08;;
74914;SDS011;63475;45.140;-75.616;2023-08-08T06:33:27;1.83;;;0.35;;
74914;SDS011;63475;45.140;-75.616;2023-08-08T06:35:30;1.15;;;0.30;;
74914;SDS011;63475;45.140;-75.616;2023-08-08T06:37:32;1.73;;;0.30;;
74914;SDS011;63475;45.140;-75.616;2023-08-08T06:39:35;1.40;;;0.25;;
74914;SDS011;63475;45.140;-75.616;2023-08-08T06:41:39;2.38;;;0.40;;
74914;SDS011;63475;45.140;-75.616;2023-08-08T06:43:42;3.00;;;1.38;;
74914;SDS011;63475;45.140;-75.616;2023-08-08T06:45:45;3.40;;;1.10;;
74914;SDS011;63475;45.140;-75.616;2023-08-08T06:47:47;1.23;;;0.30;;
74914;SDS011;63475;45.140;-75.616;2023-08-08T06:49:50;3.25;;;0.52;;
74914;SDS011;63475;45.140;-75.616;2023-08-08T06:51:53;1.73;;;0.32;;
74914;SDS011;63475;45.140;-75.616;2023-08-08T06:53:55;3.40;;;1.13;;
74914;SDS011;63475;45.140;-75.616;2023-08-08T06:55:58;1.45;;;0.40;;
74914;SDS011;63475;45.140;-75.616;2023-08-08T06:58:00;3.20;;;1.48;;
74914;SDS011;63475;45.140;-75.616;2023-08-08T07:00:03;2.03;;;0.40;;
74914;SDS011;63475;45.140;-75.616;2023-08-08T07:02:07;3.17;;;0.60;;
74914;SDS011;63475;45.140;-75.616;2023-08-08T07:04:10;2.53;;;0.30;;
74914;SDS011;63475;45.140;-75.616;2023-08-08T07:06:12;4.45;;;0.80;;
74914;SDS011;63475;45.140;-75.616;2023-08-08T07:08:15;2.47;;;0.50;;
74914;SDS011;63475;45.140;-75.616;2023-08-08T07:10:18;2.88;;;1.08;;
74914;SDS011;63475;45.140;-75.616;2023-08-08T07:12:21;2.58;;;0.75;;
74914;SDS011;63475;45.140;-75.616;2023-08-08T07:14:24;2.33;;;0.52;;
74914;SDS011;63475;45.140;-75.616;2023-08-08T07:16:26;2.67;;;0.55;;
74914;SDS011;63475;45.140;-75.616;2023-08-08T07:18:29;4.13;;;1.45;;
74914;SDS011;63475;45.140;-75.616;2023-08-08T07:20:31;3.17;;;1.50;;
74914;SDS011;63475;45.140;-75.616;2023-08-08T07:22:34;2.75;;;0.63;;
74914;SDS011;63475;45.140;-75.616;2023-08-08T07:24:37;4.78;;;1.70;;
74914;SDS011;63475;45.140;-75.616;2023-08-08T07:26:40;3.78;;;1.88;;
74914;SDS011;63475;45.140;-75.616;2023-08-08T07:28:43;3.50;;;1.55;;
74914;SDS011;63475;45.140;-75.616;2023-08-08T07:30:46;4.00;;;1.95;;
74914;SDS011;63475;45.140;-75.616;2023-08-08T07:32:48;4.13;;;1.92;;
74914;SDS011;63475;45.140;-75.616;2023-08-08T07:34:51;6.75;;;1.75;;
74914;SDS011;63475;45.140;-75.616;2023-08-08T07:36:53;3.95;;;1.45;;
74914;SDS011;63475;45.140;-75.616;2023-08-08T07:38:57;3.83;;;1.63;;
74914;SDS011;63475;45.140;-75.616;2023-08-08T07:41:01;3.22;;;0.90;;
74914;SDS011;63475;45.140;-75.616;2023-08-08T07:43:04;4.72;;;0.70;;
74914;SDS011;63475;45.140;-75.616;2023-08-08T07:45:06;4.15;;;1.95;;
74914;SDS011;63475;45.140;-75.616;2023-08-08T07:47:09;3.88;;;1.67;;
74914;SDS011;63475;45.140;-75.616;2023-08-08T07:49:14;3.50;;;1.63;;
74914;SDS011;63475;45.140;-75.616;2023-08-08T07:51:16;3.53;;;1.35;;
74914;SDS011;63475;45.140;-75.616;2023-08-08T07:53:19;3.60;;;0.90;;
74914;SDS011;63475;45.140;-75.616;2023-08-08T07:55:22;4.32;;;2.35;;
74914;SDS011;63475;45.140;-75.616;2023-08-08T07:57:26;3.28;;;0.60;;
74914;SDS011;63475;45.140;-75.616;2023-08-08T07:59:29;3.90;;;1.50;;
74914;SDS011;63475;45.140;-75.616;2023-08-08T08:01:32;3.90;;;1.80;;
74914;SDS011;63475;45.140;-75.616;2023-08-08T08:03:35;4.07;;;1.60;;
74914;SDS011;63475;45.140;-75.616;2023-08-08T08:05:37;5.50;;;2.53;;
74914;SDS011;63475;45.140;-75.616;2023-08-08T08:07:40;2.83;;;0.55;;
74914;SDS011;63475;45.140;-75.616;2023-08-08T08:09:43;3.65;;;1.67;;
74914;SDS011;63475;45.140;-75.616;2023-08-08T08:11:45;4.43;;;1.70;;
74914;SDS011;63475;45.140;-75.616;2023-08-08T08:13:48;2.92;;;1.40;;
74914;SDS011;63475;45.140;-75.616;2023-08-08T08:15:50;3.90;;;1.20;;
74914;SDS011;63475;45.140;-75.616;2023-08-08T08:17:53;3.95;;;1.42;;
74914;SDS011;63475;45.140;-75.616;2023-08-08T08:19:56;3.83;;;0.70;;
74914;SDS011;63475;45.140;-75.616;2023-08-08T08:21:58;5.10;;;1.70;;
74914;SDS011;63475;45.140;-75.616;2023-08-08T08:24:02;5.18;;;2.22;;
74914;SDS011;63475;45.140;-75.616;2023-08-08T08:26:05;5.97;;;1.65;;
74914;SDS011;63475;45.140;-75.616;2023-08-08T08:28:09;3.67;;;1.83;;
74914;SDS011;63475;45.140;-75.616;2023-08-08T08:30:11;4.65;;;1.63;;
74914;SDS011;63475;45.140;-75.616;2023-08-08T08:32:15;3.15;;;1.30;;
74914;SDS011;63475;45.140;-75.616;2023-08-08T08:34:18;3.55;;;1.40;;
74914;SDS011;63475;45.140;-75.616;2023-08-08T08:36:20;4.72;;;1.35;;
74914;SDS011;63475;45.140;-75.616;2023-08-08T08:38:23;3.05;;;1.73;;
74914;SDS011;63475;45.140;-75.616;2023-08-08T08:40:26;5.80;;;0.85;;
74914;SDS011;63475;45.140;-75.616;2023-08-08T08:42:30;3.50;;;1.75;;
74914;SDS011;63475;45.140;-75.616;2023-08-08T08:44:35;4.82;;;1.88;;
74914;SDS011;63475;45.140;-75.616;2023-08-08T08:46:38;2.83;;;1.17;;
74914;SDS011;63475;45.140;-75.616;2023-08-08T08:48:42;3.75;;;1.77;;
74914;SDS011;63475;45.140;-75.616;2023-08-08T08:50:45;3.13;;;1.23;;
74914;SDS011;63475;45.140;-75.616;2023-08-08T08:52:50;3.83;;;1.73;;
74914;SDS011;63475;45.140;-75.616;2023-08-08T08:54:53;5.18;;;1.35;;
74914;SDS011;63475;45.140;-75.616;2023-08-08T08:56:56;2.50;;;1.25;;
74914;SDS011;63475;45.140;-75.616;2023-08-08T08:58:59;4.00;;;1.33;;
74914;SDS011;63475;45.140;-75.616;2023-08-08T09:01:02;2.00;;;1.23;;
74914;SDS011;63475;45.140;-75.616;2023-08-08T09:03:05;2.60;;;1.33;;
74914;SDS011;63475;45.140;-75.616;2023-08-08T09:05:08;5.95;;;1.73;;
74914;SDS011;63475;45.140;-75.616;2023-08-08T09:07:13;3.40;;;2.28;;
74914;SDS011;63475;45.140;-75.616;2023-08-08T09:09:18;3.15;;;1.55;;
74914;SDS011;63475;45.140;-75.616;2023-08-08T09:11:23;3.00;;;1.40;;
74914;SDS011;63475;45.140;-75.616;2023-08-08T09:13:26;2.97;;;1.48;;
74914;SDS011;63475;45.140;-75.616;2023-08-08T09:15:32;3.67;;;1.90;;
74914;SDS011;63475;45.140;-75.616;2023-08-08T09:17:36;5.38;;;1.25;;
74914;SDS011;63475;45.140;-75.616;2023-08-08T09:19:49;3.40;;;1.35;;
74914;SDS011;63475;45.140;-75.616;2023-08-08T09:21:52;3.38;;;0.93;;
74914;SDS011;63475;45.140;-75.616;2023-08-08T09:23:55;4.95;;;1.90;;
74914;SDS011;63475;45.140;-75.616;2023-08-08T09:25:57;2.97;;;0.93;;
74914;SDS011;63475;45.140;-75.616;2023-08-08T09:28:00;3.08;;;1.77;;
74914;SDS011;63475;45.140;-75.616;2023-08-08T09:30:04;3.42;;;1.50;;
74914;SDS011;63475;45.140;-75.616;2023-08-08T09:32:07;4.07;;;2.00;;
74914;SDS011;63475;45.140;-75.616;2023-08-08T09:34:10;6.00;;;1.30;;
74914;SDS011;63475;45.140;-75.616;2023-08-08T09:36:15;3.60;;;1.67;;
74914;SDS011;63475;45.140;-75.616;2023-08-08T09:38:18;2.75;;;1.30;;
74914;SDS011;63475;45.140;-75.616;2023-08-08T09:40:22;3.20;;;1.55;;
74914;SDS011;63475;45.140;-75.616;2023-08-08T09:42:27;4.00;;;1.33;;
74914;SDS011;63475;45.140;-75.616;2023-08-08T09:44:31;3.40;;;1.45;;
74914;SDS011;63475;45.140;-75.616;2023-08-08T09:46:37;4.53;;;1.55;;
74914;SDS011;63475;45.140;-75.616;2023-08-08T09:48:41;3.00;;;1.58;;
74914;SDS011;63475;45.140;-75.616;2023-08-08T09:50:45;4.55;;;0.88;;
74914;SDS011;63475;45.140;-75.616;2023-08-08T09:52:48;3.65;;;2.30;;
74914;SDS011;63475;45.140;-75.616;2023-08-08T09:54:51;4.47;;;1.38;;
74914;SDS011;63475;45.140;-75.616;2023-08-08T09:56:55;3.13;;;1.33;;
74914;SDS011;63475;45.140;-75.616;2023-08-08T09:58:58;3.22;;;1.52;;
74914;SDS011;63475;45.140;-75.616;2023-08-08T10:01:02;3.42;;;1.13;;
74914;SDS011;63475;45.140;-75.616;2023-08-08T10:03:08;3.33;;;1.13;;
74914;SDS011;63475;45.140;-75.616;2023-08-08T10:05:12;2.42;;;1.20;;
74914;SDS011;63475;45.140;-75.616;2023-08-08T10:07:16;4.85;;;1.55;;
74914;SDS011;63475;45.140;-75.616;2023-08-08T10:09:19;2.75;;;1.10;;
74914;SDS011;63475;45.140;-75.616;2023-08-08T10:11:22;3.00;;;2.03;;
74914;SDS011;63475;45.140;-75.616;2023-08-08T10:13:26;3.53;;;1.60;;
74914;SDS011;63475;45.140;-75.616;2023-08-08T10:15:29;5.40;;;1.65;;
74914;SDS011;63475;45.140;-75.616;2023-08-08T10:17:35;6.63;;;1.25;;
74914;SDS011;63475;45.140;-75.616;2023-08-08T10:19:40;3.10;;;1.38;;
74914;SDS011;63475;45.140;-75.616;2023-08-08T10:21:55;2.92;;;1.20;;
74914;SDS011;63475;45.140;-75.616;2023-08-08T10:24:05;2.60;;;1.08;;
74914;SDS011;63475;45.140;-75.616;2023-08-08T10:26:18;8.55;;;1.35;;
74914;SDS011;63475;45.140;-75.616;2023-08-08T10:28:21;3.38;;;1.50;;
74914;SDS011;63475;45.140;-75.616;2023-08-08T10:30:28;2.47;;;1.23;;
74914;SDS011;63475;45.140;-75.616;2023-08-08T10:32:37;3.45;;;1.17;;
74914;SDS011;63475;45.140;-75.616;2023-08-08T10:34:46;3.78;;;1.98;;
74914;SDS011;63475;45.140;-75.616;2023-08-08T10:36:52;3.33;;;1.33;;
74914;SDS011;63475;45.140;-75.616;2023-08-08T10:38:57;2.65;;;0.55;;
74914;SDS011;63475;45.140;-75.616;2023-08-08T10:41:02;3.20;;;1.30;;
74914;SDS011;63475;45.140;-75.616;2023-08-08T10:43:13;5.22;;;1.38;;
74914;SDS011;63475;45.140;-75.616;2023-08-08T10:45:16;3.42;;;1.17;;
74914;SDS011;63475;45.140;-75.616;2023-08-08T10:47:25;3.15;;;1.50;;
74914;SDS011;63475;45.140;-75.616;2023-08-08T10:49:32;4.57;;;1.17;;
74914;SDS011;63475;45.140;-75.616;2023-08-08T10:51:36;4.07;;;1.27;;
74914;SDS011;63475;45.140;-75.616;2023-08-08T10:53:40;3.65;;;1.73;;
74914;SDS011;63475;45.140;-75.616;2023-08-08T10:55:45;2.83;;;0.98;;
74914;SDS011;63475;45.140;-75.616;2023-08-08T10:58:06;4.25;;;1.23;;
74914;SDS011;63475;45.140;-75.616;2023-08-08T11:00:16;2.67;;;1.30;;
74914;SDS011;63475;45.140;-75.616;2023-08-08T11:02:20;3.35;;;1.58;;
74914;SDS011;63475;45.140;-75.616;2023-08-08T11:04:24;3.67;;;1.35;;
74914;SDS011;63475;45.140;-75.616;2023-08-08T11:06:31;3.33;;;1.75;;
74914;SDS011;63475;45.140;-75.616;2023-08-08T11:08:35;3.20;;;0.50;;
74914;SDS011;63475;45.140;-75.616;2023-08-08T11:10:40;3.20;;;1.45;;
74914;SDS011;63475;45.140;-75.616;2023-08-08T11:15:03;2.92;;;1.23;;
74914;SDS011;63475;45.140;-75.616;2023-08-08T11:17:06;3.22;;;1.35;;
74914;SDS011;63475;45.140;-75.616;2023-08-08T11:19:09;2.80;;;0.98;;
74914;SDS011;63475;45.140;-75.616;2023-08-08T11:21:13;4.35;;;1.42;;
74914;SDS011;63475;45.140;-75.616;2023-08-08T11:25:22;2.17;;;1.10;;
74914;SDS011;63475;45.140;-75.616;2023-08-08T11:27:28;3.08;;;2.00;;
74914;SDS011;63475;45.140;-75.616;2023-08-08T11:29:33;3.72;;;1.45;;
74914;SDS011;63475;45.140;-75.616;2023-08-08T11:31:36;2.97;;;1.17;;
74914;SDS011;63475;45.140;-75.616;2023-08-08T11:33:39;3.72;;;2.05;;
74914;SDS011;63475;45.140;-75.616;2023-08-08T11:35:45;2.83;;;1.30;;
74914;SDS011;63475;45.140;-75.616;2023-08-08T11:37:49;3.45;;;1.60;;
74914;SDS011;63475;45.140;-75.616;2023-08-08T11:41:56;5.53;;;1.92;;
74914;SDS011;63475;45.140;-75.616;2023-08-08T11:44:01;4.03;;;1.77;;
74914;SDS011;63475;45.140;-75.616;2023-08-08T11:46:08;3.78;;;1.63;;
74914;SDS011;63475;45.140;-75.616;2023-08-08T11:48:14;2.95;;;0.50;;
74914;SDS011;63475;45.140;-75.616;2023-08-08T11:50:18;3.22;;;1.50;;
74914;SDS011;63475;45.140;-75.616;2023-08-08T11:52:22;3.00;;;1.75;;
74914;SDS011;63475;45.140;-75.616;2023-08-08T11:54:26;1.83;;;0.40;;
74914;SDS011;63475;45.140;-75.616;2023-08-08T11:56:32;2.80;;;0.98;;
74914;SDS011;63475;45.140;-75.616;2023-08-08T11:58:36;3.72;;;0.75;;
74914;SDS011;63475;45.140;-75.616;2023-08-08T12:00:38;2.40;;;0.52;;
74914;SDS011;63475;45.140;-75.616;2023-08-08T12:02:42;3.20;;;1.27;;
74914;SDS011;63475;45.140;-75.616;2023-08-08T12:04:45;3.28;;;1.65;;
74914;SDS011;63475;45.140;-75.616;2023-08-08T12:06:48;2.60;;;1.25;;
74914;SDS011;63475;45.140;-75.616;2023-08-08T12:08:51;2.63;;;1.45;;
74914;SDS011;63475;45.140;-75.616;2023-08-08T12:10:56;3.60;;;1.38;;